Rankin, Michigan
Current Conditions -  °F | °C
As of 2:53 AM on Sunday 21 Dec 2014 (Local Time) from KFNT Reporting Station
Haze Haze  
Wind Chill: 24°   Ceiling: 3500
Heat Index: 24°   Visibility: 6mi
Dew Point: 20°   Wind: 0mph
Humidity: 84%   Direction: NA
Pressure: 30.28"   Gusts: NA
Location:  42.9382°N, 83.8244°W
Report Text: KFNT 210753Z AUTO 00000KT 6SM BR BKN035 OVC070 M04/M07 A3028 RMK AO2 SLP265 T10441067
Loading
Personal Weather Stations






























Interactive Weather Map New forecast layout! Learn more

10-Day Weather Forecast

Advertisements
Track Severe Weather on mobile